sensor_id;sensor_type;location;lat;lon;timestamp;temperature;humidity
27567;DHT22;15006;48.584;9.186;2024-01-27T00:01:51;-1.30;99.10
27567;DHT22;15006;48.584;9.186;2024-01-27T00:04:17;-1.30;99.00
27567;DHT22;15006;48.584;9.186;2024-01-27T00:06:43;-1.40;98.90
27567;DHT22;15006;48.584;9.186;2024-01-27T00:09:09;-1.40;98.80
27567;DHT22;15006;48.584;9.186;2024-01-27T00:11:35;-1.50;99.00
27567;DHT22;15006;48.584;9.186;2024-01-27T00:14:01;-1.50;99.20
27567;DHT22;15006;48.584;9.186;2024-01-27T00:16:28;-1.50;99.40
27567;DHT22;15006;48.584;9.186;2024-01-27T00:18:54;-1.60;99.50
27567;DHT22;15006;48.584;9.186;2024-01-27T00:21:20;-1.60;99.50
27567;DHT22;15006;48.584;9.186;2024-01-27T00:23:46;-1.60;99.60
27567;DHT22;15006;48.584;9.186;2024-01-27T00:26:12;-1.60;99.50
27567;DHT22;15006;48.584;9.186;2024-01-27T00:28:38;-1.70;99.40
27567;DHT22;15006;48.584;9.186;2024-01-27T00:31:04;-1.70;99.30
27567;DHT22;15006;48.584;9.186;2024-01-27T00:33:30;-1.70;99.10
27567;DHT22;15006;48.584;9.186;2024-01-27T00:35:56;-1.70;99.00
27567;DHT22;15006;48.584;9.186;2024-01-27T00:38:22;-1.80;98.80
27567;DHT22;15006;48.584;9.186;2024-01-27T00:40:48;-1.80;98.70
27567;DHT22;15006;48.584;9.186;2024-01-27T00:43:14;-1.90;98.70
27567;DHT22;15006;48.584;9.186;2024-01-27T00:45:40;-1.90;98.80
27567;DHT22;15006;48.584;9.186;2024-01-27T00:48:07;-2.00;98.70
27567;DHT22;15006;48.584;9.186;2024-01-27T00:50:33;-2.00;98.80
27567;DHT22;15006;48.584;9.186;2024-01-27T00:52:59;-2.10;99.00
27567;DHT22;15006;48.584;9.186;2024-01-27T00:55:25;-2.10;99.00
27567;DHT22;15006;48.584;9.186;2024-01-27T00:57:51;-2.10;99.40
27567;DHT22;15006;48.584;9.186;2024-01-27T01:00:19;-2.20;99.00
27567;DHT22;15006;48.584;9.186;2024-01-27T01:02:45;-2.20;98.80
27567;DHT22;15006;48.584;9.186;2024-01-27T01:05:11;-2.30;98.80
27567;DHT22;15006;48.584;9.186;2024-01-27T01:07:37;-2.30;99.00
27567;DHT22;15006;48.584;9.186;2024-01-27T01:10:03;-2.30;99.20
27567;DHT22;15006;48.584;9.186;2024-01-27T01:12:30;-2.40;99.40
27567;DHT22;15006;48.584;9.186;2024-01-27T01:14:56;-2.40;99.50
27567;DHT22;15006;48.584;9.186;2024-01-27T01:17:22;-2.40;99.70
27567;DHT22;15006;48.584;9.186;2024-01-27T01:19:48;-2.50;99.70
27567;DHT22;15006;48.584;9.186;2024-01-27T01:22:14;-2.50;99.80
27567;DHT22;15006;48.584;9.186;2024-01-27T01:24:40;-2.50;99.90
27567;DHT22;15006;48.584;9.186;2024-01-27T01:27:06;-2.60;99.70
27567;DHT22;15006;48.584;9.186;2024-01-27T01:29:32;-2.60;99.60
27567;DHT22;15006;48.584;9.186;2024-01-27T01:31:58;-2.60;99.50
27567;DHT22;15006;48.584;9.186;2024-01-27T01:34:24;-2.60;99.60
27567;DHT22;15006;48.584;9.186;2024-01-27T01:36:50;-2.70;99.40
27567;DHT22;15006;48.584;9.186;2024-01-27T01:39:16;-2.70;99.60
27567;DHT22;15006;48.584;9.186;2024-01-27T01:41:42;-2.70;99.80
27567;DHT22;15006;48.584;9.186;2024-01-27T01:44:08;-2.80;99.90
27567;DHT22;15006;48.584;9.186;2024-01-27T01:46:34;-2.80;99.90
27567;DHT22;15006;48.584;9.186;2024-01-27T01:49:01;-2.80;99.90
27567;DHT22;15006;48.584;9.186;2024-01-27T01:51:27;-2.80;99.90
27567;DHT22;15006;48.584;9.186;2024-01-27T01:53:57;-2.80;99.90
27567;DHT22;15006;48.584;9.186;2024-01-27T01:56:25;-2.80;99.80
27567;DHT22;15006;48.584;9.186;2024-01-27T01:58:51;-2.90;99.70
27567;DHT22;15006;48.584;9.186;2024-01-27T02:01:19;-2.90;99.70
27567;DHT22;15006;48.584;9.186;2024-01-27T02:03:57;-2.90;99.80
27567;DHT22;15006;48.584;9.186;2024-01-27T02:06:23;-3.00;99.90
27567;DHT22;15006;48.584;9.186;2024-01-27T02:08:50;-3.00;99.90
27567;DHT22;15006;48.584;9.186;2024-01-27T02:11:22;-3.00;99.90
27567;DHT22;15006;48.584;9.186;2024-01-27T02:13:48;-3.00;99.90
27567;DHT22;15006;48.584;9.186;2024-01-27T02:16:15;-3.00;99.90
27567;DHT22;15006;48.584;9.186;2024-01-27T02:18:43;-3.10;99.90
27567;DHT22;15006;48.584;9.186;2024-01-27T02:21:09;-3.10;99.90
27567;DHT22;15006;48.584;9.186;2024-01-27T02:23:35;-3.10;99.90
27567;DHT22;15006;48.584;9.186;2024-01-27T02:26:01;-3.20;99.90
27567;DHT22;15006;48.584;9.186;2024-01-27T02:28:28;-3.20;99.90
27567;DHT22;15006;48.584;9.186;2024-01-27T02:30:58;-3.20;99.90
27567;DHT22;15006;48.584;9.186;2024-01-27T02:33:25;-3.20;99.90
27567;DHT22;15006;48.584;9.186;2024-01-27T02:35:52;-3.30;99.90
27567;DHT22;15006;48.584;9.186;2024-01-27T02:38:18;-3.30;99.80
27567;DHT22;15006;48.584;9.186;2024-01-27T02:40:44;-3.30;99.70
27567;DHT22;15006;48.584;9.186;2024-01-27T02:43:10;-3.30;99.50
27567;DHT22;15006;48.584;9.186;2024-01-27T02:45:36;-3.40;99.60
27567;DHT22;15006;48.584;9.186;2024-01-27T02:48:03;-3.40;99.70
27567;DHT22;15006;48.584;9.186;2024-01-27T02:50:29;-3.40;99.70
27567;DHT22;15006;48.584;9.186;2024-01-27T02:52:54;-3.50;99.70
27567;DHT22;15006;48.584;9.186;2024-01-27T02:55:20;-3.50;99.80
27567;DHT22;15006;48.584;9.186;2024-01-27T02:57:46;-3.50;99.90
27567;DHT22;15006;48.584;9.186;2024-01-27T03:00:12;-3.50;99.90
27567;DHT22;15006;48.584;9.186;2024-01-27T03:02:38;-3.50;99.90
27567;DHT22;15006;48.584;9.186;2024-01-27T03:05:05;-3.50;99.90
27567;DHT22;15006;48.584;9.186;2024-01-27T03:07:31;-3.50;99.90
27567;DHT22;15006;48.584;9.186;2024-01-27T03:09:57;-3.50;99.90
27567;DHT22;15006;48.584;9.186;2024-01-27T03:12:23;-3.50;99.90
27567;DHT22;15006;48.584;9.186;2024-01-27T03:14:49;-3.50;99.90
27567;DHT22;15006;48.584;9.186;2024-01-27T03:17:16;-3.50;99.90
27567;DHT22;15006;48.584;9.186;2024-01-27T03:19:42;-3.60;99.90
27567;DHT22;15006;48.584;9.186;2024-01-27T03:22:08;-3.60;99.90
27567;DHT22;15006;48.584;9.186;2024-01-27T03:24:34;-3.60;99.90
27567;DHT22;15006;48.584;9.186;2024-01-27T03:27:00;-3.60;99.90
27567;DHT22;15006;48.584;9.186;2024-01-27T03:29:26;-3.60;99.90
27567;DHT22;15006;48.584;9.186;2024-01-27T03:31:53;-3.60;99.90
27567;DHT22;15006;48.584;9.186;2024-01-27T03:34:19;-3.60;99.90
27567;DHT22;15006;48.584;9.186;2024-01-27T03:36:50;-3.70;99.90
27567;DHT22;15006;48.584;9.186;2024-01-27T03:39:16;-3.60;99.90
27567;DHT22;15006;48.584;9.186;2024-01-27T03:41:42;-3.60;99.90
27567;DHT22;15006;48.584;9.186;2024-01-27T03:44:08;-3.70;99.90
27567;DHT22;15006;48.584;9.186;2024-01-27T03:46:34;-3.70;99.90
27567;DHT22;15006;48.584;9.186;2024-01-27T03:49:00;-3.70;99.90
27567;DHT22;15006;48.584;9.186;2024-01-27T03:51:26;-3.70;99.90
27567;DHT22;15006;48.584;9.186;2024-01-27T03:53:52;-3.80;99.90
27567;DHT22;15006;48.584;9.186;2024-01-27T03:56:18;-3.80;99.80
27567;DHT22;15006;48.584;9.186;2024-01-27T03:58:44;-3.80;99.80
27567;DHT22;15006;48.584;9.186;2024-01-27T04:01:10;-3.80;99.80
27567;DHT22;15006;48.584;9.186;2024-01-27T04:03:36;-3.90;99.70
27567;DHT22;15006;48.584;9.186;2024-01-27T04:06:02;-3.90;99.80
27567;DHT22;15006;48.584;9.186;2024-01-27T04:08:30;-3.90;99.90
27567;DHT22;15006;48.584;9.186;2024-01-27T04:10:56;-3.90;99.90
27567;DHT22;15006;48.584;9.186;2024-01-27T04:13:22;-4.00;99.90
27567;DHT22;15006;48.584;9.186;2024-01-27T04:15:48;-4.00;99.90
27567;DHT22;15006;48.584;9.186;2024-01-27T04:18:13;-4.00;99.90
27567;DHT22;15006;48.584;9.186;2024-01-27T04:20:39;-4.00;99.90
27567;DHT22;15006;48.584;9.186;2024-01-27T04:23:05;-4.00;99.90
27567;DHT22;15006;48.584;9.186;2024-01-27T04:25:31;-4.00;99.90
27567;DHT22;15006;48.584;9.186;2024-01-27T04:27:57;-4.00;99.90
27567;DHT22;15006;48.584;9.186;2024-01-27T04:30:23;-4.00;99.90
27567;DHT22;15006;48.584;9.186;2024-01-27T04:32:49;-4.00;99.90
27567;DHT22;15006;48.584;9.186;2024-01-27T04:35:17;-4.00;99.90
27567;DHT22;15006;48.584;9.186;2024-01-27T04:37:44;-4.00;99.90
27567;DHT22;15006;48.584;9.186;2024-01-27T04:40:11;-4.00;99.90
27567;DHT22;15006;48.584;9.186;2024-01-27T04:42:38;-4.00;99.90
27567;DHT22;15006;48.584;9.186;2024-01-27T04:45:05;-4.00;99.90
27567;DHT22;15006;48.584;9.186;2024-01-27T04:47:31;-4.00;99.90
27567;DHT22;15006;48.584;9.186;2024-01-27T04:49:57;-4.00;99.90
27567;DHT22;15006;48.584;9.186;2024-01-27T04:52:24;-4.00;99.90
27567;DHT22;15006;48.584;9.186;2024-01-27T04:54:50;-4.00;99.90
27567;DHT22;15006;48.584;9.186;2024-01-27T04:57:16;-4.00;99.90
27567;DHT22;15006;48.584;9.186;2024-01-27T04:59:42;-4.00;99.90
27567;DHT22;15006;48.584;9.186;2024-01-27T05:02:08;-4.10;99.90
27567;DHT22;15006;48.584;9.186;2024-01-27T05:04:34;-4.00;99.90
27567;DHT22;15006;48.584;9.186;2024-01-27T05:07:00;-4.00;99.90
27567;DHT22;15006;48.584;9.186;2024-01-27T05:09:26;-4.10;99.90
27567;DHT22;15006;48.584;9.186;2024-01-27T05:11:53;-4.10;99.90
27567;DHT22;15006;48.584;9.186;2024-01-27T05:14:19;-4.10;99.90
27567;DHT22;15006;48.584;9.186;2024-01-27T05:16:45;-4.10;99.90
27567;DHT22;15006;48.584;9.186;2024-01-27T05:19:11;-4.10;99.90
27567;DHT22;15006;48.584;9.186;2024-01-27T05:21:38;-4.10;99.90
27567;DHT22;15006;48.584;9.186;2024-01-27T05:24:04;-4.20;99.90
27567;DHT22;15006;48.584;9.186;2024-01-27T05:26:30;-4.20;99.70
27567;DHT22;15006;48.584;9.186;2024-01-27T05:28:56;-4.30;99.60
27567;DHT22;15006;48.584;9.186;2024-01-27T05:31:22;-4.30;99.60
27567;DHT22;15006;48.584;9.186;2024-01-27T05:33:48;-4.40;99.80
27567;DHT22;15006;48.584;9.186;2024-01-27T05:36:14;-4.40;99.90
27567;DHT22;15006;48.584;9.186;2024-01-27T05:38:40;-4.40;99.90
27567;DHT22;15006;48.584;9.186;2024-01-27T05:41:06;-4.40;99.90
27567;DHT22;15006;48.584;9.186;2024-01-27T05:43:32;-4.50;99.90
27567;DHT22;15006;48.584;9.186;2024-01-27T05:45:58;-4.50;99.90
27567;DHT22;15006;48.584;9.186;2024-01-27T05:48:25;-4.50;99.90
27567;DHT22;15006;48.584;9.186;2024-01-27T05:50:58;-4.50;99.90
27567;DHT22;15006;48.584;9.186;2024-01-27T05:53:25;-4.50;99.90
27567;DHT22;15006;48.584;9.186;2024-01-27T05:55:52;-4.50;99.90
27567;DHT22;15006;48.584;9.186;2024-01-27T05:58:19;-4.50;99.90
27567;DHT22;15006;48.584;9.186;2024-01-27T06:00:48;-4.50;99.90
27567;DHT22;15006;48.584;9.186;2024-01-27T06:03:14;-4.50;99.90
27567;DHT22;15006;48.584;9.186;2024-01-27T06:05:41;-4.50;99.90
27567;DHT22;15006;48.584;9.186;2024-01-27T06:08:08;-4.50;99.90
27567;DHT22;15006;48.584;9.186;2024-01-27T06:10:34;-4.50;99.90
27567;DHT22;15006;48.584;9.186;2024-01-27T06:13:03;-4.50;99.90
27567;DHT22;15006;48.584;9.186;2024-01-27T06:15:29;-4.50;99.90
27567;DHT22;15006;48.584;9.186;2024-01-27T06:17:55;-4.50;99.90
27567;DHT22;15006;48.584;9.186;2024-01-27T06:20:21;-4.50;99.90
27567;DHT22;15006;48.584;9.186;2024-01-27T06:22:47;-4.50;99.90
27567;DHT22;15006;48.584;9.186;2024-01-27T06:25:14;-4.50;99.90
27567;DHT22;15006;48.584;9.186;2024-01-27T06:27:40;-4.50;99.90
27567;DHT22;15006;48.584;9.186;2024-01-27T06:30:09;-4.50;99.90
27567;DHT22;15006;48.584;9.186;2024-01-27T06:32:36;-4.50;99.90
27567;DHT22;15006;48.584;9.186;2024-01-27T06:35:03;-4.50;99.90
27567;DHT22;15006;48.584;9.186;2024-01-27T06:37:30;-4.50;99.90
27567;DHT22;15006;48.584;9.186;2024-01-27T06:39:56;-4.50;99.90
27567;DHT22;15006;48.584;9.186;2024-01-27T06:42:22;-4.50;99.90
27567;DHT22;15006;48.584;9.186;2024-01-27T06:44:47;-4.50;99.90
27567;DHT22;15006;48.584;9.186;2024-01-27T06:47:14;-4.60;99.90
27567;DHT22;15006;48.584;9.186;2024-01-27T06:49:40;-4.60;99.90
27567;DHT22;15006;48.584;9.186;2024-01-27T06:52:06;-4.60;99.90
27567;DHT22;15006;48.584;9.186;2024-01-27T06:54:32;-4.60;99.90
27567;DHT22;15006;48.584;9.186;2024-01-27T06:57:00;-4.60;99.90
27567;DHT22;15006;48.584;9.186;2024-01-27T06:59:28;-4.70;99.90
27567;DHT22;15006;48.584;9.186;2024-01-27T07:01:54;-4.70;99.90
27567;DHT22;15006;48.584;9.186;2024-01-27T07:04:20;-4.70;99.90
27567;DHT22;15006;48.584;9.186;2024-01-27T07:06:47;-4.70;99.90
27567;DHT22;15006;48.584;9.186;2024-01-27T07:09:13;-4.70;99.90
27567;DHT22;15006;48.584;9.186;2024-01-27T07:11:39;-4.70;99.90
27567;DHT22;15006;48.584;9.186;2024-01-27T07:14:05;-4.70;99.90
27567;DHT22;15006;48.584;9.186;2024-01-27T07:16:34;-4.70;99.90
27567;DHT22;15006;48.584;9.186;2024-01-27T07:19:00;-4.70;99.90
27567;DHT22;15006;48.584;9.186;2024-01-27T07:21:26;-4.70;99.90
27567;DHT22;15006;48.584;9.186;2024-01-27T07:23:54;-4.60;99.90
27567;DHT22;15006;48.584;9.186;2024-01-27T07:26:21;-4.60;99.90
27567;DHT22;15006;48.584;9.186;2024-01-27T07:28:47;-4.60;99.90
27567;DHT22;15006;48.584;9.186;2024-01-27T07:31:13;-4.50;99.90
27567;DHT22;15006;48.584;9.186;2024-01-27T07:33:40;-4.50;99.90
27567;DHT22;15006;48.584;9.186;2024-01-27T07:36:06;-4.40;99.90
27567;DHT22;15006;48.584;9.186;2024-01-27T07:38:32;-4.30;99.90
27567;DHT22;15006;48.584;9.186;2024-01-27T07:40:58;-4.20;99.90
27567;DHT22;15006;48.584;9.186;2024-01-27T07:43:25;-4.20;99.90
27567;DHT22;15006;48.584;9.186;2024-01-27T07:45:52;-4.10;99.90
27567;DHT22;15006;48.584;9.186;2024-01-27T07:48:19;-4.10;99.90
27567;DHT22;15006;48.584;9.186;2024-01-27T07:50:45;-4.10;99.90
27567;DHT22;15006;48.584;9.186;2024-01-27T07:53:15;-4.10;99.90
27567;DHT22;15006;48.584;9.186;2024-01-27T07:55:41;-4.00;99.90
27567;DHT22;15006;48.584;9.186;2024-01-27T07:58:07;-4.00;99.90
27567;DHT22;15006;48.584;9.186;2024-01-27T08:00:32;-4.00;99.90
27567;DHT22;15006;48.584;9.186;2024-01-27T08:02:58;-3.90;99.90
27567;DHT22;15006;48.584;9.186;2024-01-27T08:05:24;-3.90;99.90
27567;DHT22;15006;48.584;9.186;2024-01-27T08:07:50;-3.80;99.90
27567;DHT22;15006;48.584;9.186;2024-01-27T08:10:16;-3.70;99.90
27567;DHT22;15006;48.584;9.186;2024-01-27T08:12:42;-3.70;99.90
27567;DHT22;15006;48.584;9.186;2024-01-27T08:15:09;-3.60;99.90
27567;DHT22;15006;48.584;9.186;2024-01-27T08:17:35;-3.60;99.90
27567;DHT22;15006;48.584;9.186;2024-01-27T08:20:01;-3.50;99.90
27567;DHT22;15006;48.584;9.186;2024-01-27T08:22:28;-3.50;99.90
27567;DHT22;15006;48.584;9.186;2024-01-27T08:24:54;-3.40;99.90
27567;DHT22;15006;48.584;9.186;2024-01-27T08:27:20;-3.30;99.90
27567;DHT22;15006;48.584;9.186;2024-01-27T08:29:46;-3.30;99.90
27567;DHT22;15006;48.584;9.186;2024-01-27T08:32:12;-3.20;99.90
27567;DHT22;15006;48.584;9.186;2024-01-27T08:34:39;-3.10;99.90
27567;DHT22;15006;48.584;9.186;2024-01-27T08:37:17;-3.10;99.90
27567;DHT22;15006;48.584;9.186;2024-01-27T08:39:44;-3.00;99.90
27567;DHT22;15006;48.584;9.186;2024-01-27T08:42:11;-3.00;99.90
27567;DHT22;15006;48.584;9.186;2024-01-27T08:44:38;-2.90;99.90
27567;DHT22;15006;48.584;9.186;2024-01-27T08:47:05;-2.90;99.90
27567;DHT22;15006;48.584;9.186;2024-01-27T08:49:31;-2.80;99.90
27567;DHT22;15006;48.584;9.186;2024-01-27T08:51:57;-2.80;99.90
27567;DHT22;15006;48.584;9.186;2024-01-27T08:54:23;-2.70;99.90
27567;DHT22;15006;48.584;9.186;2024-01-27T08:56:49;-2.60;99.90
27567;DHT22;15006;48.584;9.186;2024-01-27T08:59:15;-2.60;99.90
27567;DHT22;15006;48.584;9.186;2024-01-27T09:01:42;-2.50;99.90
27567;DHT22;15006;48.584;9.186;2024-01-27T09:04:08;-2.50;99.90
27567;DHT22;15006;48.584;9.186;2024-01-27T09:06:35;-2.40;99.90
27567;DHT22;15006;48.584;9.186;2024-01-27T09:09:01;-2.30;99.90
27567;DHT22;15006;48.584;9.186;2024-01-27T09:11:27;-2.30;99.90
27567;DHT22;15006;48.584;9.186;2024-01-27T09:13:56;-2.20;99.90
27567;DHT22;15006;48.584;9.186;2024-01-27T09:16:22;-2.10;99.90
27567;DHT22;15006;48.584;9.186;2024-01-27T09:18:48;-2.10;99.90
27567;DHT22;15006;48.584;9.186;2024-01-27T09:21:19;-2.00;99.90
27567;DHT22;15006;48.584;9.186;2024-01-27T09:23:48;-2.00;99.90
27567;DHT22;15006;48.584;9.186;2024-01-27T09:26:14;-2.00;99.90
27567;DHT22;15006;48.584;9.186;2024-01-27T09:28:44;-1.90;99.90
27567;DHT22;15006;48.584;9.186;2024-01-27T09:31:11;-1.90;99.90
27567;DHT22;15006;48.584;9.186;2024-01-27T09:33:37;-1.80;99.90
27567;DHT22;15006;48.584;9.186;2024-01-27T09:36:04;-1.80;99.90
27567;DHT22;15006;48.584;9.186;2024-01-27T09:38:30;-1.70;99.90
27567;DHT22;15006;48.584;9.186;2024-01-27T09:40:56;-1.70;99.90
27567;DHT22;15006;48.584;9.186;2024-01-27T09:43:24;-1.70;99.90
27567;DHT22;15006;48.584;9.186;2024-01-27T09:45:50;-1.60;99.90
27567;DHT22;15006;48.584;9.186;2024-01-27T09:48:16;-1.50;99.90
27567;DHT22;15006;48.584;9.186;2024-01-27T09:50:45;-1.50;99.90
27567;DHT22;15006;48.584;9.186;2024-01-27T09:53:14;-1.40;99.90
27567;DHT22;15006;48.584;9.186;2024-01-27T09:55:40;-1.30;99.90
27567;DHT22;15006;48.584;9.186;2024-01-27T09:58:06;-1.30;99.90
27567;DHT22;15006;48.584;9.186;2024-01-27T10:00:35;-1.20;99.90
27567;DHT22;15006;48.584;9.186;2024-01-27T10:03:03;-1.10;99.90
27567;DHT22;15006;48.584;9.186;2024-01-27T10:05:31;-1.00;99.90
27567;DHT22;15006;48.584;9.186;2024-01-27T10:07:57;-0.80;99.90
27567;DHT22;15006;48.584;9.186;2024-01-27T10:10:23;-0.80;99.90
27567;DHT22;15006;48.584;9.186;2024-01-27T10:12:52;-0.60;99.90
27567;DHT22;15006;48.584;9.186;2024-01-27T10:15:24;-0.50;99.90
27567;DHT22;15006;48.584;9.186;2024-01-27T10:17:52;-0.40;99.90
27567;DHT22;15006;48.584;9.186;2024-01-27T10:20:18;-0.30;99.90
27567;DHT22;15006;48.584;9.186;2024-01-27T10:22:45;-0.20;99.90
27567;DHT22;15006;48.584;9.186;2024-01-27T10:25:11;-0.10;99.90
27567;DHT22;15006;48.584;9.186;2024-01-27T10:27:38;0.00;99.90
27567;DHT22;15006;48.584;9.186;2024-01-27T10:30:04;0.20;99.90
27567;DHT22;15006;48.584;9.186;2024-01-27T10:32:33;0.30;99.90
27567;DHT22;15006;48.584;9.186;2024-01-27T10:35:06;0.40;99.90
27567;DHT22;15006;48.584;9.186;2024-01-27T10:37:34;0.60;99.90
27567;DHT22;15006;48.584;9.186;2024-01-27T10:40:06;0.70;99.90
27567;DHT22;15006;48.584;9.186;2024-01-27T10:42:36;0.90;99.90
27567;DHT22;15006;48.584;9.186;2024-01-27T10:45:03;1.00;99.90
27567;DHT22;15006;48.584;9.186;2024-01-27T10:47:32;1.10;99.90
27567;DHT22;15006;48.584;9.186;2024-01-27T10:50:00;1.30;99.90
27567;DHT22;15006;48.584;9.186;2024-01-27T10:52:31;1.40;99.90
27567;DHT22;15006;48.584;9.186;2024-01-27T10:55:05;1.60;99.90
27567;DHT22;15006;48.584;9.186;2024-01-27T10:57:34;1.70;99.90
27567;DHT22;15006;48.584;9.186;2024-01-27T11:00:01;1.90;99.90
27567;DHT22;15006;48.584;9.186;2024-01-27T11:02:33;2.00;99.90
27567;DHT22;15006;48.584;9.186;2024-01-27T11:05:03;2.20;99.90
27567;DHT22;15006;48.584;9.186;2024-01-27T11:07:33;2.60;99.90
27567;DHT22;15006;48.584;9.186;2024-01-27T11:10:01;3.10;99.90
27567;DHT22;15006;48.584;9.186;2024-01-27T11:12:28;3.70;99.90
27567;DHT22;15006;48.584;9.186;2024-01-27T11:14:54;4.40;99.90
27567;DHT22;15006;48.584;9.186;2024-01-27T11:17:20;5.20;99.90
27567;DHT22;15006;48.584;9.186;2024-01-27T11:19:47;5.90;99.90
27567;DHT22;15006;48.584;9.186;2024-01-27T11:22:27;6.70;99.90
27567;DHT22;15006;48.584;9.186;2024-01-27T11:25:15;7.50;99.90
27567;DHT22;15006;48.584;9.186;2024-01-27T11:27:43;8.30;99.90
27567;DHT22;15006;48.584;9.186;2024-01-27T11:30:30;9.00;99.90
27567;DHT22;15006;48.584;9.186;2024-01-27T11:33:02;9.60;99.90
27567;DHT22;15006;48.584;9.186;2024-01-27T11:35:30;10.10;99.90
27567;DHT22;15006;48.584;9.186;2024-01-27T11:37:56;10.50;99.90
27567;DHT22;15006;48.584;9.186;2024-01-27T11:40:22;11.00;99.90
27567;DHT22;15006;48.584;9.186;2024-01-27T11:42:58;11.40;99.90
27567;DHT22;15006;48.584;9.186;2024-01-27T11:45:28;11.90;99.90
27567;DHT22;15006;48.584;9.186;2024-01-27T11:47:59;12.40;99.90
27567;DHT22;15006;48.584;9.186;2024-01-27T11:50:26;12.90;99.60
27567;DHT22;15006;48.584;9.186;2024-01-27T11:52:53;13.50;99.90
27567;DHT22;15006;48.584;9.186;2024-01-27T11:55:19;14.10;99.90
27567;DHT22;15006;48.584;9.186;2024-01-27T11:57:45;14.60;99.90
27567;DHT22;15006;48.584;9.186;2024-01-27T12:00:11;15.00;99.90
27567;DHT22;15006;48.584;9.186;2024-01-27T12:02:38;15.40;99.90
27567;DHT22;15006;48.584;9.186;2024-01-27T12:05:08;15.80;99.00
27567;DHT22;15006;48.584;9.186;2024-01-27T12:07:35;16.20;91.70
27567;DHT22;15006;48.584;9.186;2024-01-27T12:10:01;16.40;95.50
27567;DHT22;15006;48.584;9.186;2024-01-27T12:12:27;16.70;93.00
27567;DHT22;15006;48.584;9.186;2024-01-27T12:15:11;17.00;93.00
27567;DHT22;15006;48.584;9.186;2024-01-27T12:17:38;17.20;89.20
27567;DHT22;15006;48.584;9.186;2024-01-27T12:20:14;17.40;88.00
27567;DHT22;15006;48.584;9.186;2024-01-27T12:22:42;17.60;74.00
27567;DHT22;15006;48.584;9.186;2024-01-27T12:25:12;17.80;81.90
27567;DHT22;15006;48.584;9.186;2024-01-27T12:27:41;17.70;79.70
27567;DHT22;15006;48.584;9.186;2024-01-27T12:30:08;17.80;82.70
27567;DHT22;15006;48.584;9.186;2024-01-27T12:32:34;18.00;83.50
27567;DHT22;15006;48.584;9.186;2024-01-27T12:35:07;18.10;84.60
27567;DHT22;15006;48.584;9.186;2024-01-27T12:37:36;18.30;75.50
27567;DHT22;15006;48.584;9.186;2024-01-27T12:40:16;18.50;76.80
27567;DHT22;15006;48.584;9.186;2024-01-27T12:42:43;18.70;81.40
27567;DHT22;15006;48.584;9.186;2024-01-27T12:45:09;18.90;81.80
27567;DHT22;15006;48.584;9.186;2024-01-27T12:47:35;19.10;79.90
27567;DHT22;15006;48.584;9.186;2024-01-27T12:50:01;19.20;78.60
27567;DHT22;15006;48.584;9.186;2024-01-27T12:52:27;19.40;77.50
27567;DHT22;15006;48.584;9.186;2024-01-27T12:54:53;19.50;75.60
27567;DHT22;15006;48.584;9.186;2024-01-27T12:57:19;19.60;75.80
27567;DHT22;15006;48.584;9.186;2024-01-27T12:59:45;19.70;74.40
27567;DHT22;15006;48.584;9.186;2024-01-27T13:02:11;19.80;74.40
27567;DHT22;15006;48.584;9.186;2024-01-27T13:04:37;19.80;72.10
27567;DHT22;15006;48.584;9.186;2024-01-27T13:07:03;19.90;71.50
27567;DHT22;15006;48.584;9.186;2024-01-27T13:09:31;20.00;71.00
27567;DHT22;15006;48.584;9.186;2024-01-27T13:12:00;20.10;67.90
27567;DHT22;15006;48.584;9.186;2024-01-27T13:14:27;20.10;70.60
27567;DHT22;15006;48.584;9.186;2024-01-27T13:16:53;20.20;69.40
27567;DHT22;15006;48.584;9.186;2024-01-27T13:19:20;20.20;69.70
27567;DHT22;15006;48.584;9.186;2024-01-27T13:21:46;20.30;69.20
27567;DHT22;15006;48.584;9.186;2024-01-27T13:24:12;20.30;66.80
27567;DHT22;15006;48.584;9.186;2024-01-27T13:26:38;20.40;68.20
27567;DHT22;15006;48.584;9.186;2024-01-27T13:29:04;20.40;68.80
27567;DHT22;15006;48.584;9.186;2024-01-27T13:31:30;20.50;68.30
27567;DHT22;15006;48.584;9.186;2024-01-27T13:33:57;20.50;68.30
27567;DHT22;15006;48.584;9.186;2024-01-27T13:36:25;20.60;67.60
27567;DHT22;15006;48.584;9.186;2024-01-27T13:38:51;20.70;66.80
27567;DHT22;15006;48.584;9.186;2024-01-27T13:41:17;20.80;67.30
27567;DHT22;15006;48.584;9.186;2024-01-27T13:43:44;21.00;65.80
27567;DHT22;15006;48.584;9.186;2024-01-27T13:46:10;21.00;66.70
27567;DHT22;15006;48.584;9.186;2024-01-27T13:48:36;21.20;65.60
27567;DHT22;15006;48.584;9.186;2024-01-27T13:51:03;21.30;65.80
27567;DHT22;15006;48.584;9.186;2024-01-27T13:53:29;21.40;65.00
27567;DHT22;15006;48.584;9.186;2024-01-27T13:55:55;21.40;64.60
27567;DHT22;15006;48.584;9.186;2024-01-27T13:58:21;21.50;63.40
27567;DHT22;15006;48.584;9.186;2024-01-27T14:00:48;21.50;63.40
27567;DHT22;15006;48.584;9.186;2024-01-27T14:03:14;21.40;62.50
27567;DHT22;15006;48.584;9.186;2024-01-27T14:05:40;21.40;62.10
27567;DHT22;15006;48.584;9.186;2024-01-27T14:08:07;21.40;62.90
27567;DHT22;15006;48.584;9.186;2024-01-27T14:10:35;21.40;61.60
27567;DHT22;15006;48.584;9.186;2024-01-27T14:13:02;21.30;61.50
27567;DHT22;15006;48.584;9.186;2024-01-27T14:15:30;21.30;61.90
27567;DHT22;15006;48.584;9.186;2024-01-27T14:17:56;21.20;61.40
27567;DHT22;15006;48.584;9.186;2024-01-27T14:20:26;21.10;61.40
27567;DHT22;15006;48.584;9.186;2024-01-27T14:22:55;21.00;60.30
27567;DHT22;15006;48.584;9.186;2024-01-27T14:25:24;20.90;61.40
27567;DHT22;15006;48.584;9.186;2024-01-27T14:27:51;20.80;61.40
27567;DHT22;15006;48.584;9.186;2024-01-27T14:30:17;20.80;61.10
27567;DHT22;15006;48.584;9.186;2024-01-27T14:32:43;20.70;60.40
27567;DHT22;15006;48.584;9.186;2024-01-27T14:35:09;20.60;60.40
27567;DHT22;15006;48.584;9.186;2024-01-27T14:37:36;20.40;59.80
27567;DHT22;15006;48.584;9.186;2024-01-27T14:40:04;20.20;59.20
27567;DHT22;15006;48.584;9.186;2024-01-27T14:42:30;20.00;58.90
27567;DHT22;15006;48.584;9.186;2024-01-27T14:44:56;19.80;58.90
27567;DHT22;15006;48.584;9.186;2024-01-27T14:47:22;19.60;59.80
27567;DHT22;15006;48.584;9.186;2024-01-27T14:49:48;19.40;60.00
27567;DHT22;15006;48.584;9.186;2024-01-27T14:52:14;19.20;60.30
27567;DHT22;15006;48.584;9.186;2024-01-27T14:54:40;19.10;61.10
27567;DHT22;15006;48.584;9.186;2024-01-27T14:57:07;18.90;61.00
27567;DHT22;15006;48.584;9.186;2024-01-27T14:59:36;18.80;59.90
27567;DHT22;15006;48.584;9.186;2024-01-27T15:02:05;18.60;59.20
27567;DHT22;15006;48.584;9.186;2024-01-27T15:04:31;18.30;59.20
27567;DHT22;15006;48.584;9.186;2024-01-27T15:06:57;18.10;59.80
27567;DHT22;15006;48.584;9.186;2024-01-27T15:09:23;17.90;60.50
27567;DHT22;15006;48.584;9.186;2024-01-27T15:11:50;17.70;61.10
27567;DHT22;15006;48.584;9.186;2024-01-27T15:14:17;17.50;61.00
27567;DHT22;15006;48.584;9.186;2024-01-27T15:16:44;17.30;60.40
27567;DHT22;15006;48.584;9.186;2024-01-27T15:19:11;17.00;59.60
27567;DHT22;15006;48.584;9.186;2024-01-27T15:21:37;16.60;58.40
27567;DHT22;15006;48.584;9.186;2024-01-27T15:24:03;16.10;58.10
27567;DHT22;15006;48.584;9.186;2024-01-27T15:26:30;15.50;58.10
27567;DHT22;15006;48.584;9.186;2024-01-27T15:28:57;15.00;58.40
27567;DHT22;15006;48.584;9.186;2024-01-27T15:31:23;14.40;58.80